createdAt,value
2022-10-21T00:02:11.828Z,20.70
2022-10-21T00:05:37.802Z,22.57
2022-10-21T00:09:02.467Z,19.10
2022-10-21T00:12:26.389Z,23.90
2022-10-21T00:16:00.027Z,25.23
2022-10-21T00:19:24.377Z,21.70
2022-10-21T00:22:49.654Z,20.13
2022-10-21T00:26:14.537Z,22.83
2022-10-21T00:29:38.585Z,19.30
2022-10-21T00:33:03.295Z,18.20
2022-10-21T00:36:29.644Z,24.80
2022-10-21T00:39:54.628Z,25.07
2022-10-21T00:43:18.618Z,21.13
2022-10-21T00:46:46.522Z,22.93
2022-10-21T00:50:21.851Z,19.93
2022-10-21T00:53:48.833Z,20.40
2022-10-21T00:57:15.257Z,25.00
2022-10-21T01:00:38.993Z,20.07
2022-10-21T01:04:03.961Z,17.73
2022-10-21T01:07:28.457Z,22.57
2022-10-21T01:10:53.021Z,20.07
2022-10-21T01:14:42.960Z,16.93
2022-10-21T01:18:12.940Z,21.73
2022-10-21T01:21:43.076Z,29.63
2022-10-21T01:25:34.888Z,15.37
2022-10-21T01:29:18.373Z,17.10
2022-10-21T01:32:53.320Z,13.70
2022-10-21T01:36:32.816Z,18.00
2022-10-21T01:40:04.017Z,21.13
2022-10-21T01:43:37.957Z,14.63
2022-10-21T01:47:07.361Z,16.27
2022-10-21T01:50:37.477Z,18.90
2022-10-21T01:54:05.858Z,17.90
2022-10-21T01:57:35.362Z,20.37
2022-10-21T02:01:05.151Z,17.03
2022-10-21T02:04:31.709Z,18.10
2022-10-21T02:07:56.994Z,24.80
2022-10-21T02:11:24.207Z,15.87
2022-10-21T02:14:51.468Z,18.00
2022-10-21T02:18:21.744Z,16.47
2022-10-21T02:21:47.945Z,18.57
2022-10-21T02:25:18.427Z,18.23
2022-10-21T02:28:42.839Z,15.73
2022-10-21T02:32:18.223Z,17.90
2022-10-21T02:35:47.794Z,17.23
2022-10-21T02:39:24.518Z,15.73
2022-10-21T02:42:55.182Z,23.47
2022-10-21T02:46:19.604Z,16.70
2022-10-21T02:49:45.009Z,22.37
2022-10-21T02:53:10.584Z,24.07
2022-10-21T02:56:35.849Z,18.53
2022-10-21T03:00:00.802Z,18.97
2022-10-21T03:03:24.509Z,21.37
2022-10-21T03:06:48.456Z,21.00
2022-10-21T03:10:12.532Z,23.30
2022-10-21T03:13:37.750Z,20.67
2022-10-21T03:17:02.905Z,17.63
2022-10-21T03:20:27.524Z,26.60
2022-10-21T03:23:51.541Z,19.10
2022-10-21T03:27:15.543Z,22.23
2022-10-21T03:30:39.766Z,23.40
2022-10-21T03:34:04.924Z,18.83
2022-10-21T03:37:28.608Z,18.93
2022-10-21T03:40:52.653Z,21.87
2022-10-21T03:44:16.575Z,22.60
2022-10-21T03:47:40.553Z,24.07
2022-10-21T03:51:06.243Z,18.77
2022-10-21T03:54:30.588Z,21.77
2022-10-21T03:57:54.941Z,21.00
2022-10-21T04:01:19.606Z,20.73
2022-10-21T04:04:46.530Z,20.20
2022-10-21T04:08:11.895Z,18.27
2022-10-21T04:11:35.510Z,16.13
2022-10-21T04:14:59.577Z,22.47
2022-10-21T04:18:23.522Z,17.80
2022-10-21T04:21:48.091Z,20.50
2022-10-21T04:25:13.942Z,17.77
2022-10-21T04:28:37.903Z,22.10
2022-10-21T04:32:01.637Z,15.60
2022-10-21T04:35:25.677Z,20.50
2022-10-21T04:38:49.348Z,15.03
2022-10-21T04:42:18.989Z,18.07
2022-10-21T04:45:42.674Z,18.73
2022-10-21T04:49:06.989Z,17.07
2022-10-21T04:52:32.710Z,15.90
2022-10-21T04:55:56.769Z,13.90
2022-10-21T04:59:21.945Z,15.53
2022-10-21T05:02:45.646Z,16.80
2022-10-21T05:06:09.622Z,17.60
2022-10-21T05:09:33.592Z,20.23
2022-10-21T05:12:58.273Z,17.07
2022-10-21T05:16:24.443Z,17.33
2022-10-21T05:19:50.098Z,16.80
2022-10-21T05:23:14.609Z,15.00
2022-10-21T05:26:38.185Z,18.07
2022-10-21T05:30:01.782Z,16.00
2022-10-21T05:33:26.794Z,18.30
2022-10-21T05:36:50.384Z,14.57
2022-10-21T05:40:14.137Z,18.20
2022-10-21T05:43:38.079Z,15.30
2022-10-21T05:47:01.621Z,12.67
2022-10-21T05:50:26.627Z,12.63
2022-10-21T05:53:50.150Z,15.50
2022-10-21T05:57:13.678Z,12.03
2022-10-21T06:00:37.561Z,12.57
2022-10-21T06:04:01.246Z,12.83
2022-10-21T06:07:26.312Z,16.40
2022-10-21T06:10:49.875Z,11.60
2022-10-21T06:14:13.516Z,14.63
2022-10-21T06:17:37.396Z,15.60
2022-10-21T06:21:01.312Z,12.80
2022-10-21T06:24:27.481Z,13.93
2022-10-21T06:27:51.050Z,11.60
2022-10-21T06:31:18.846Z,17.97
2022-10-21T06:34:42.444Z,17.43
2022-10-21T06:38:06.074Z,14.03
2022-10-21T06:41:31.113Z,12.10
2022-10-21T06:44:56.705Z,11.57
2022-10-21T06:48:23.155Z,12.43
2022-10-21T06:51:46.866Z,15.13
2022-10-21T06:55:10.827Z,13.30
2022-10-21T06:58:36.926Z,11.53
2022-10-21T07:02:01.347Z,13.07
2022-10-21T07:05:25.169Z,14.00
2022-10-21T07:08:57.862Z,13.33
2022-10-21T07:12:22.156Z,11.97
2022-10-21T07:15:47.350Z,11.50
2022-10-21T07:19:11.998Z,11.63
2022-10-21T07:22:35.603Z,9.90
2022-10-21T07:25:59.395Z,14.00
2022-10-21T07:29:22.970Z,12.60
2022-10-21T07:32:48.036Z,11.03
2022-10-21T07:36:13.726Z,12.70
2022-10-21T07:39:37.272Z,12.33
2022-10-21T07:43:00.952Z,10.17
2022-10-21T07:46:25.340Z,11.23
2022-10-21T07:49:50.331Z,8.97
2022-10-21T07:53:14.559Z,11.57
2022-10-21T07:56:41.281Z,14.00
2022-10-21T08:00:06.132Z,10.93
2022-10-21T08:03:36.322Z,8.93
2022-10-21T08:07:01.424Z,12.73
2022-10-21T08:10:24.997Z,8.37
2022-10-21T08:13:48.490Z,7.43
2022-10-21T08:17:12.110Z,10.80
2022-10-21T08:20:39.011Z,9.50
2022-10-21T08:24:05.320Z,9.50
2022-10-21T08:27:30.022Z,6.60
2022-10-21T08:30:54.049Z,6.27
2022-10-21T08:34:18.257Z,10.47
2022-10-21T08:37:41.980Z,7.40
2022-10-21T08:41:22.340Z,9.43
2022-10-21T08:44:50.669Z,6.27
2022-10-21T08:48:19.786Z,7.30
2022-10-21T08:51:47.334Z,7.93
2022-10-21T08:55:17.483Z,5.83
2022-10-21T08:58:43.906Z,6.00
2022-10-21T09:02:22.803Z,5.53
2022-10-21T09:06:13.815Z,6.40
2022-10-21T09:09:45.122Z,6.90
2022-10-21T09:13:16.866Z,7.77
2022-10-21T09:16:51.597Z,9.80
2022-10-21T09:20:27.327Z,8.47
2022-10-21T09:23:59.674Z,7.23
2022-10-21T09:27:32.070Z,7.90
2022-10-21T09:31:16.535Z,8.07
2022-10-21T09:34:52.018Z,9.27
2022-10-21T09:38:21.613Z,9.43
2022-10-21T09:41:49.364Z,7.17
2022-10-21T09:45:25.538Z,5.77
2022-10-21T09:49:36.762Z,6.70
2022-10-21T09:52:39.476Z,16.73
2022-10-21T09:56:07.492Z,9.00
2022-10-21T09:59:33.506Z,8.93
2022-10-21T10:02:57.263Z,8.90
2022-10-21T10:06:42.400Z,11.27
2022-10-21T10:10:30.336Z,8.40
2022-10-21T10:13:55.003Z,7.80
2022-10-21T10:17:28.964Z,8.57
2022-10-21T10:21:07.756Z,9.63
2022-10-21T10:24:33.070Z,9.67
2022-10-21T10:28:00.269Z,8.77
2022-10-21T10:31:33.591Z,10.57
2022-10-21T10:35:03.033Z,6.90
2022-10-21T10:38:29.966Z,8.30
2022-10-21T10:41:54.050Z,7.20
2022-10-21T10:45:22.775Z,8.60
2022-10-21T10:48:49.429Z,7.17
2022-10-21T10:52:22.291Z,12.33
2022-10-21T10:59:16.996Z,10.53
2022-10-21T11:02:49.163Z,11.63
2022-10-21T11:06:18.120Z,8.00
2022-10-21T11:09:42.258Z,8.10
2022-10-21T11:13:11.005Z,8.60
2022-10-21T11:16:59.621Z,10.30
2022-10-21T11:20:33.266Z,10.83
2022-10-21T11:24:09.916Z,11.27
2022-10-21T11:27:50.072Z,7.50
2022-10-21T11:31:24.851Z,10.17
2022-10-21T11:35:18.509Z,11.77
2022-10-21T11:39:24.103Z,12.67
2022-10-21T11:42:52.150Z,10.00
2022-10-21T11:46:21.829Z,9.10
2022-10-21T11:49:54.862Z,9.63
2022-10-21T11:53:33.153Z,9.07
2022-10-21T11:57:04.190Z,8.50
2022-10-21T12:00:38.581Z,9.33
2022-10-21T12:04:24.324Z,7.77
2022-10-21T12:08:06.960Z,7.00
2022-10-21T12:11:35.790Z,6.27
2022-10-21T12:15:02.466Z,9.40
2022-10-21T12:18:30.345Z,11.73
2022-10-21T12:21:54.448Z,10.13
2022-10-21T12:25:31.754Z,10.03
2022-10-21T12:29:00.199Z,8.20
2022-10-21T12:32:32.828Z,12.50
2022-10-21T12:36:17.484Z,11.90
2022-10-21T12:39:51.792Z,7.73
2022-10-21T12:43:22.528Z,11.37
2022-10-21T12:46:49.413Z,9.00
2022-10-21T12:50:26.000Z,13.70
2022-10-21T12:53:53.432Z,6.50
2022-10-21T12:57:27.575Z,9.40
2022-10-21T13:00:57.006Z,7.43
2022-10-21T13:04:45.844Z,6.93
2022-10-21T13:08:27.165Z,8.47
2022-10-21T13:12:04.701Z,7.20
2022-10-21T13:15:52.530Z,7.93
2022-10-21T13:19:35.887Z,10.60
2022-10-21T13:23:39.254Z,8.90
2022-10-21T13:27:06.579Z,7.70
2022-10-21T13:30:32.571Z,8.13
2022-10-21T13:33:57.308Z,7.70
2022-10-21T13:37:27.080Z,10.30
2022-10-21T13:40:52.986Z,7.80
2022-10-21T13:44:29.812Z,8.20
2022-10-21T13:48:01.884Z,7.87
2022-10-21T13:51:29.661Z,7.00
2022-10-21T13:54:58.243Z,6.63
2022-10-21T13:58:22.256Z,9.13
2022-10-21T14:01:49.730Z,9.20
2022-10-21T14:05:28.817Z,10.90
2022-10-21T14:08:54.801Z,9.60
2022-10-21T14:12:25.043Z,13.20
2022-10-21T14:15:49.527Z,8.87
2022-10-21T14:19:19.757Z,7.33
2022-10-21T14:22:48.451Z,6.00
2022-10-21T14:26:12.283Z,6.00
2022-10-21T14:29:37.495Z,6.10
2022-10-21T14:33:06.133Z,10.73
2022-10-21T14:36:31.875Z,7.43
2022-10-21T14:40:09.980Z,6.87
2022-10-21T14:43:36.400Z,13.20
2022-10-21T14:47:00.587Z,7.90
2022-10-21T14:50:25.709Z,8.27
2022-10-21T14:53:57.647Z,8.03
2022-10-21T14:57:42.526Z,8.53
2022-10-21T15:01:12.643Z,8.07
2022-10-21T15:04:43.376Z,7.23
2022-10-21T15:08:40.252Z,15.03
2022-10-21T15:12:19.677Z,6.57
2022-10-21T15:15:48.368Z,7.03
2022-10-21T15:19:20.462Z,7.90
2022-10-21T15:22:44.165Z,7.60
2022-10-21T15:26:11.959Z,9.27
2022-10-21T15:29:38.346Z,10.50
2022-10-21T15:33:02.012Z,6.63
2022-10-21T15:36:25.665Z,11.20
2022-10-21T15:39:49.454Z,10.40
2022-10-21T15:43:13.109Z,15.93
2022-10-21T15:46:46.159Z,8.13
2022-10-21T15:50:15.599Z,7.07
2022-10-21T15:53:42.298Z,8.10
2022-10-21T15:57:17.134Z,11.07
2022-10-21T16:00:41.131Z,9.73
2022-10-21T16:04:06.355Z,8.17
2022-10-21T16:07:32.990Z,9.30
2022-10-21T16:10:56.581Z,6.60
2022-10-21T16:14:20.423Z,6.50
2022-10-21T16:17:46.699Z,11.07
2022-10-21T16:21:13.517Z,7.10
2022-10-21T16:24:37.091Z,6.43
2022-10-21T16:28:01.193Z,7.50
2022-10-21T16:31:27.013Z,11.10
2022-10-21T16:34:50.708Z,7.70
2022-10-21T16:38:18.231Z,5.50
2022-10-21T16:41:45.325Z,10.97
2022-10-21T16:45:09.473Z,7.83
2022-10-21T16:48:33.364Z,6.87
2022-10-21T16:51:57.603Z,14.47
2022-10-21T16:55:22.802Z,6.73
2022-10-21T16:58:46.522Z,7.50
2022-10-21T17:02:16.374Z,7.40
2022-10-21T17:05:39.959Z,8.77
2022-10-21T17:09:03.542Z,5.37
2022-10-21T17:12:31.231Z,12.13
2022-10-21T17:15:54.797Z,8.17
2022-10-21T17:19:18.380Z,6.97
2022-10-21T17:22:41.952Z,5.97
2022-10-21T17:26:05.824Z,8.33
2022-10-21T17:29:30.861Z,7.83
2022-10-21T17:32:54.408Z,9.10
2022-10-21T17:36:18.991Z,5.67
2022-10-21T17:39:42.518Z,7.60
2022-10-21T17:43:06.219Z,6.00
2022-10-21T17:46:31.106Z,5.73
2022-10-21T17:49:54.713Z,12.07
2022-10-21T17:53:18.243Z,11.67
2022-10-21T17:56:41.974Z,7.83
2022-10-21T18:00:06.311Z,7.13
2022-10-21T18:03:32.173Z,9.23
2022-10-21T18:06:55.805Z,11.30
2022-10-21T18:10:19.703Z,7.73
2022-10-21T18:13:43.809Z,8.30
2022-10-21T18:17:08.414Z,10.63
2022-10-21T18:20:37.007Z,5.50
2022-10-21T18:24:01.176Z,7.97
2022-10-21T18:27:24.805Z,5.60
2022-10-21T18:30:48.380Z,6.23
2022-10-21T18:34:13.294Z,7.20
2022-10-21T18:37:38.519Z,7.00
2022-10-21T18:41:19.041Z,9.23
2022-10-21T18:44:44.119Z,4.93
2022-10-21T18:48:08.098Z,7.73
2022-10-21T18:51:32.853Z,6.83
2022-10-21T18:54:57.994Z,9.83
2022-10-21T18:58:21.742Z,6.97
2022-10-21T19:01:45.617Z,8.73
2022-10-21T19:05:09.986Z,7.37
2022-10-21T19:08:36.173Z,6.97
2022-10-21T19:12:02.888Z,8.53
2022-10-21T19:15:26.497Z,7.13
2022-10-21T19:18:50.327Z,7.67
2022-10-21T19:22:17.305Z,8.20
2022-10-21T19:25:41.098Z,7.77
2022-10-21T19:29:07.792Z,6.63
2022-10-21T19:32:31.332Z,7.60
2022-10-21T19:35:55.175Z,9.03
2022-10-21T19:39:19.159Z,7.67
2022-10-21T19:42:43.138Z,10.13
2022-10-21T19:46:09.692Z,11.30
2022-10-21T19:49:34.553Z,7.87
2022-10-21T19:52:58.264Z,7.00
2022-10-21T19:56:26.988Z,7.23
2022-10-21T19:59:52.297Z,5.73
2022-10-21T20:03:17.235Z,5.30
2022-10-21T20:06:40.938Z,6.40
2022-10-21T20:10:06.013Z,6.50
2022-10-21T20:13:29.782Z,7.33
2022-10-21T20:16:53.441Z,6.83
2022-10-21T20:20:18.718Z,8.30
2022-10-21T20:23:42.685Z,9.63
2022-10-21T20:27:06.254Z,6.20
2022-10-21T20:30:29.896Z,7.20
2022-10-21T20:33:53.501Z,7.27
2022-10-21T20:37:18.481Z,7.67
2022-10-21T20:40:41.963Z,6.50
2022-10-21T20:44:08.030Z,8.30
2022-10-21T20:47:31.773Z,10.70
2022-10-21T20:51:01.940Z,9.07
2022-10-21T20:54:28.069Z,8.53
2022-10-21T20:57:51.738Z,7.17
2022-10-21T21:01:18.740Z,7.67
2022-10-21T21:04:42.424Z,8.60
2022-10-21T21:08:06.618Z,9.40
2022-10-21T21:11:31.542Z,6.60
2022-10-21T21:14:55.094Z,9.07
2022-10-21T21:18:18.756Z,9.93
2022-10-21T21:21:42.619Z,8.80
2022-10-21T21:25:07.093Z,10.83
2022-10-21T21:28:35.495Z,8.40
2022-10-21T21:32:00.031Z,7.60
2022-10-21T21:35:23.687Z,8.60
2022-10-21T21:38:47.239Z,9.13
2022-10-21T21:42:10.730Z,9.67
2022-10-21T21:45:35.679Z,7.70
2022-10-21T21:49:04.082Z,7.17
2022-10-21T21:52:29.600Z,11.17
2022-10-21T21:55:53.234Z,6.00
2022-10-21T21:59:16.989Z,10.60
2022-10-21T22:02:42.394Z,7.33
2022-10-21T22:06:10.040Z,8.27
2022-10-21T22:09:33.774Z,8.57
2022-10-21T22:12:57.709Z,9.60
2022-10-21T22:16:24.416Z,7.93
2022-10-21T22:19:53.557Z,7.97
2022-10-21T22:23:19.585Z,10.50
2022-10-21T22:26:43.281Z,12.63
2022-10-21T22:30:08.953Z,7.87
2022-10-21T22:33:32.691Z,7.27
2022-10-21T22:36:57.660Z,14.83
2022-10-21T22:40:21.196Z,7.03
2022-10-21T22:43:44.750Z,13.83
2022-10-21T22:47:08.291Z,6.67
2022-10-21T22:50:31.811Z,8.10
2022-10-21T22:53:57.078Z,8.43
2022-10-21T22:57:20.655Z,6.63
2022-10-21T23:00:44.465Z,6.53
2022-10-21T23:04:09.952Z,8.10
2022-10-21T23:07:34.974Z,8.30
2022-10-21T23:11:00.379Z,7.13
2022-10-21T23:14:24.018Z,7.00
2022-10-21T23:17:50.932Z,8.03
2022-10-21T23:21:15.069Z,7.00
2022-10-21T23:24:39.105Z,17.03
2022-10-21T23:28:04.789Z,7.90
2022-10-21T23:31:29.036Z,8.53
2022-10-21T23:34:53.773Z,6.20
2022-10-21T23:38:18.125Z,8.40
2022-10-21T23:41:42.361Z,10.17
2022-10-21T23:45:09.117Z,6.10
2022-10-21T23:48:33.008Z,7.80
2022-10-21T23:51:58.215Z,12.87
2022-10-21T23:55:22.158Z,8.63
2022-10-21T23:58:46.107Z,7.93
